Ecoporanga, Brazil
Current Conditions -  °F | °C
As of 6:00 PM on Thursday 20 Nov 2014 (Local Time) from SBIP Reporting Station
Clear Clear  
Wind Chill: 82°   Ceiling: Unl
Heat Index: 83°   Visibility: 6mi
Dew Point: 61°   Wind: 7mph
Humidity: 48%   Direction: 50°NE
Pressure: 29.91"   Gusts: NA
Location:  18.37°S, 40.84°W
Report Text: SBIP 202000Z 05006KT CAVOK 28/16 Q1013
Loading
Personal Weather Stations






























Interactive Weather Map New forecast layout! Learn more

10-Day Weather Forecast

Advertisements
Track Severe Weather on mobile